Glencoe, Arkansas
Current Conditions -  °F | °C
As of 1:35 PM on Saturday 20 Dec 2014 (Local Time) from KBVX Reporting Station
Overcast Overcast  
Wind Chill: 43°   Ceiling: 2400
Heat Index: 43°   Visibility: 8mi
Dew Point: 34°   Wind: 0mph
Humidity: 70%   Direction: NA
Pressure: 30.24"   Gusts: NA
Location:  36.29°N, 91.75°W
Report Text: KBVX 201935Z AUTO 00000KT 8SM OVC024 06/01 A3024 RMK AO1
Loading
Personal Weather Stations






























Interactive Weather Map New forecast layout! Learn more

10-Day Weather Forecast

Advertisements
Track Severe Weather on mobile